UAL2328 KEWR-KSFO
Flight info
| Callsign | UAL2328 |
|---|---|
| Flight time | 5h 30m |
| Altitude | 40000 |
| Route | ZIMMZ Q42 LEWRP PWE MCK VOAXA Q136 RUMPS OAL INYOE DYAMD5 |
| Aircraft | B772/H-SDE2E3FGHIJ5LORVWXY/LB1D1 |
Departure
| Time | 2026-05-03 20:55 |
|---|---|
| Airport | Newark Liberty International Airport (KEWR) |
Arrival
| Time | 2026-05-04 02:26 |
|---|---|
| Airport | San Francisco International Airport (KSFO) |
| Time | Latitude | Longitude | Altitude | Speed | Heading |
|---|---|---|---|---|---|
| 2026-05-03 20:27 | 40.69789 | -74.17555 | 26 ft | 0 kts | 150° |
| 2026-05-03 20:47 | 40.69809 | -74.17573 | 25 ft | 4 kts | 137° |
| 2026-05-03 20:47 | 40.69826 | -74.17599 | 25 ft | 4 kts | 111° |
| 2026-05-03 20:47 | 40.69829 | -74.17632 | 23 ft | 4 kts | 72° |
| 2026-05-03 20:47 | 40.69818 | -74.17657 | 24 ft | 1 kts | 40° |
| 2026-05-03 20:50 | 40.69838 | -74.17635 | 25 ft | 9 kts | 40° |
| 2026-05-03 20:51 | 40.69888 | -74.17579 | 26 ft | 9 kts | 41° |
| 2026-05-03 20:51 | 40.69933 | -74.17515 | 26 ft | 9 kts | 46° |
| 2026-05-03 20:51 | 40.69980 | -74.17454 | 26 ft | 9 kts | 44° |
| 2026-05-03 20:51 | 40.70026 | -74.17393 | 26 ft | 9 kts | 48° |
| 2026-05-03 20:52 | 40.70038 | -74.17308 | 27 ft | 10 kts | 92° |
| 2026-05-03 20:52 | 40.70033 | -74.17221 | 27 ft | 10 kts | 96° |
| 2026-05-03 20:52 | 40.70026 | -74.17133 | 27 ft | 10 kts | 95° |
| 2026-05-03 20:52 | 40.70020 | -74.17046 | 26 ft | 10 kts | 95° |
| 2026-05-03 20:53 | 40.70014 | -74.16958 | 26 ft | 10 kts | 95° |
| 2026-05-03 20:53 | 40.70008 | -74.16870 | 26 ft | 10 kts | 94° |
| 2026-05-03 20:53 | 40.70003 | -74.16783 | 26 ft | 10 kts | 94° |
| 2026-05-03 20:53 | 40.69998 | -74.16697 | 31 ft | 10 kts | 95° |
| 2026-05-03 20:54 | 40.69992 | -74.16609 | 28 ft | 10 kts | 95° |
| 2026-05-03 20:54 | 40.69978 | -74.16434 | 24 ft | 8 kts | 109° |
| 2026-05-03 20:54 | 40.69925 | -74.16430 | 27 ft | 12 kts | 206° |
| 2026-05-03 20:55 | 40.69658 | -74.16604 | 26 ft | 82 kts | 205° |
| 2026-05-03 20:55 | 40.68911 | -74.17077 | 31 ft | 153 kts | 207° |
| 2026-05-03 20:55 | 40.67891 | -74.17697 | 492 ft | 173 kts | 214° |
| 2026-05-03 20:55 | 40.66872 | -74.18478 | 1354 ft | 166 kts | 220° |
| 2026-05-03 20:56 | 40.65754 | -74.18853 | 2016 ft | 173 kts | 178° |
| 2026-05-03 20:56 | 40.64564 | -74.18574 | 2520 ft | 179 kts | 189° |
| 2026-05-03 20:56 | 40.63331 | -74.19172 | 2522 ft | 205 kts | 227° |
| 2026-05-03 20:56 | 40.62546 | -74.20819 | 2489 ft | 227 kts | 261° |
| 2026-05-03 20:57 | 40.62615 | -74.22892 | 2900 ft | 232 kts | 285° |
| 2026-05-03 20:57 | 40.63065 | -74.24961 | 3583 ft | 237 kts | 287° |
| 2026-05-03 20:57 | 40.63523 | -74.27053 | 4443 ft | 238 kts | 287° |
| 2026-05-03 20:57 | 40.63979 | -74.29149 | 5321 ft | 239 kts | 288° |
| 2026-05-03 20:58 | 40.64431 | -74.31259 | 6134 ft | 241 kts | 288° |
| 2026-05-03 20:58 | 40.64879 | -74.33393 | 6899 ft | 243 kts | 288° |
| 2026-05-03 20:58 | 40.65328 | -74.35549 | 7633 ft | 247 kts | 288° |
| 2026-05-03 20:58 | 40.65795 | -74.37757 | 8283 ft | 251 kts | 287° |
| 2026-05-03 20:59 | 40.66262 | -74.39949 | 9020 ft | 252 kts | 288° |
| 2026-05-03 20:59 | 40.66732 | -74.42170 | 9717 ft | 251 kts | 288° |
| 2026-05-03 20:59 | 40.67200 | -74.44422 | 10012 ft | 259 kts | 288° |
| 2026-05-03 20:59 | 40.67672 | -74.46728 | 10002 ft | 260 kts | 287° |
| 2026-05-03 21:00 | 40.68128 | -74.49060 | 10075 ft | 270 kts | 287° |
| 2026-05-03 21:00 | 40.68448 | -74.50715 | 10178 ft | 283 kts | 287° |
| 2026-05-03 21:00 | 40.69127 | -74.54199 | 10469 ft | 308 kts | 286° |
| 2026-05-03 21:00 | 40.69667 | -74.56978 | 11058 ft | 317 kts | 286° |
| 2026-05-03 21:01 | 40.70218 | -74.59824 | 11843 ft | 323 kts | 286° |
| 2026-05-03 21:01 | 40.70778 | -74.62717 | 12766 ft | 327 kts | 286° |
| 2026-05-03 21:01 | 40.71345 | -74.65642 | 13687 ft | 333 kts | 286° |
| 2026-05-03 21:01 | 40.71919 | -74.68613 | 14484 ft | 337 kts | 286° |
| 2026-05-03 21:02 | 40.72498 | -74.71610 | 15424 ft | 337 kts | 286° |
| 2026-05-03 21:02 | 40.73077 | -74.74613 | 16328 ft | 339 kts | 286° |
| 2026-05-03 21:02 | 40.73661 | -74.77639 | 17173 ft | 342 kts | 286° |
| 2026-05-03 21:02 | 40.74248 | -74.80688 | 18001 ft | 345 kts | 286° |
| 2026-05-03 21:03 | 40.74839 | -74.83763 | 18736 ft | 347 kts | 286° |
| 2026-05-03 21:03 | 40.75433 | -74.86858 | 19439 ft | 349 kts | 286° |
| 2026-05-03 21:03 | 40.76021 | -74.89929 | 20124 ft | 351 kts | 286° |
| 2026-05-03 21:03 | 40.76621 | -74.93066 | 20789 ft | 354 kts | 286° |
| 2026-05-03 21:04 | 40.77226 | -74.96227 | 21450 ft | 356 kts | 286° |
| 2026-05-03 21:04 | 40.77833 | -74.99406 | 22121 ft | 359 kts | 286° |
| 2026-05-03 21:04 | 40.78447 | -75.02626 | 22774 ft | 362 kts | 286° |
| 2026-05-03 21:04 | 40.79061 | -75.05856 | 23401 ft | 364 kts | 286° |
| 2026-05-03 21:05 | 40.79592 | -75.09138 | 23926 ft | 369 kts | 280° |
| 2026-05-03 21:05 | 40.79767 | -75.12545 | 24404 ft | 375 kts | 274° |
| 2026-05-03 21:05 | 40.79701 | -75.16008 | 24871 ft | 380 kts | 269° |
| 2026-05-03 21:05 | 40.79332 | -75.19453 | 25356 ft | 387 kts | 263° |
| 2026-05-03 21:06 | 40.78791 | -75.22944 | 25841 ft | 390 kts | 263° |
| 2026-05-03 21:06 | 40.78252 | -75.26460 | 26344 ft | 392 kts | 263° |
| 2026-05-03 21:06 | 40.77722 | -75.30005 | 26822 ft | 395 kts | 263° |
| 2026-05-03 21:06 | 40.77196 | -75.33577 | 27317 ft | 398 kts | 262° |
| 2026-05-03 21:07 | 40.76526 | -75.37145 | 27777 ft | 404 kts | 257° |
| 2026-05-03 21:07 | 40.75592 | -75.40670 | 28238 ft | 410 kts | 253° |
| 2026-05-03 21:07 | 40.74399 | -75.44105 | 28692 ft | 415 kts | 248° |
| 2026-05-03 21:07 | 40.73105 | -75.47532 | 29111 ft | 419 kts | 248° |
| 2026-05-03 21:08 | 40.71806 | -75.50984 | 29554 ft | 422 kts | 248° |
| 2026-05-03 21:08 | 40.70502 | -75.54463 | 30011 ft | 424 kts | 248° |
| 2026-05-03 21:08 | 40.69193 | -75.57964 | 30359 ft | 427 kts | 248° |
| 2026-05-03 21:08 | 40.67874 | -75.61497 | 30679 ft | 431 kts | 248° |
| 2026-05-03 21:09 | 40.66565 | -75.65003 | 30999 ft | 433 kts | 248° |
| 2026-05-03 21:09 | 40.65231 | -75.68572 | 31320 ft | 435 kts | 248° |
| 2026-05-03 21:09 | 40.63894 | -75.72143 | 31669 ft | 436 kts | 248° |
| 2026-05-03 21:09 | 40.62551 | -75.75733 | 31927 ft | 439 kts | 248° |
| 2026-05-03 21:10 | 40.61197 | -75.79347 | 32190 ft | 441 kts | 248° |
| 2026-05-03 21:10 | 40.59835 | -75.82969 | 32495 ft | 442 kts | 247° |
| 2026-05-03 21:10 | 40.58464 | -75.86583 | 32911 ft | 441 kts | 247° |
| 2026-05-03 21:10 | 40.57090 | -75.90182 | 33361 ft | 439 kts | 247° |
| 2026-05-03 21:11 | 40.55722 | -75.93762 | 33786 ft | 438 kts | 247° |
| 2026-05-03 21:11 | 40.54353 | -75.97340 | 34132 ft | 437 kts | 247° |
| 2026-05-03 21:11 | 40.52983 | -76.00922 | 34419 ft | 437 kts | 247° |
| 2026-05-03 21:11 | 40.51615 | -76.04496 | 34722 ft | 437 kts | 246° |
| 2026-05-03 21:12 | 40.50246 | -76.08069 | 34986 ft | 437 kts | 246° |
| 2026-05-03 21:12 | 40.48885 | -76.11615 | 35452 ft | 433 kts | 246° |
| 2026-05-03 21:12 | 40.47548 | -76.15097 | 35810 ft | 432 kts | 246° |
| 2026-05-03 21:12 | 40.46192 | -76.18628 | 36029 ft | 433 kts | 246° |
| 2026-05-03 21:13 | 40.44829 | -76.22174 | 36264 ft | 434 kts | 246° |
| 2026-05-03 21:13 | 40.43467 | -76.25711 | 36544 ft | 434 kts | 246° |
| 2026-05-03 21:13 | 40.42104 | -76.29244 | 36842 ft | 433 kts | 246° |
| 2026-05-03 21:13 | 40.40740 | -76.32774 | 37113 ft | 433 kts | 246° |
| 2026-05-03 21:14 | 40.39377 | -76.36303 | 37373 ft | 433 kts | 246° |
| 2026-05-03 21:14 | 40.38010 | -76.39835 | 37606 ft | 433 kts | 246° |
| 2026-05-03 21:14 | 40.36661 | -76.43316 | 37859 ft | 433 kts | 246° |
| 2026-05-03 21:14 | 40.35389 | -76.46892 | 38093 ft | 432 kts | 250° |
| 2026-05-03 21:15 | 40.34369 | -76.50589 | 38315 ft | 431 kts | 253° |
| 2026-05-03 21:15 | 40.33533 | -76.54361 | 38488 ft | 431 kts | 258° |
| 2026-05-03 21:15 | 40.32930 | -76.58203 | 38722 ft | 429 kts | 259° |
| 2026-05-03 21:15 | 40.32363 | -76.62048 | 38893 ft | 430 kts | 259° |
| 2026-05-03 21:16 | 40.31798 | -76.65899 | 39054 ft | 430 kts | 259° |
| 2026-05-03 21:16 | 40.31229 | -76.69753 | 39237 ft | 431 kts | 259° |
| 2026-05-03 21:16 | 40.30654 | -76.73608 | 39403 ft | 431 kts | 259° |
| 2026-05-03 21:16 | 40.30077 | -76.77456 | 39575 ft | 431 kts | 259° |
| 2026-05-03 21:17 | 40.29495 | -76.81306 | 39725 ft | 431 kts | 259° |
| 2026-05-03 21:17 | 40.29108 | -76.83856 | 39823 ft | 431 kts | 259° |
| 2026-05-03 21:17 | 40.28321 | -76.89023 | 39933 ft | 434 kts | 259° |
| 2026-05-03 21:17 | 40.27735 | -76.92863 | 39968 ft | 436 kts | 259° |
| 2026-05-03 21:18 | 40.26535 | -77.00689 | 40006 ft | 439 kts | 259° |
| 2026-05-03 21:18 | 40.25327 | -77.08535 | 40028 ft | 441 kts | 259° |
| 2026-05-03 21:19 | 40.24110 | -77.16403 | 40029 ft | 440 kts | 259° |
| 2026-05-03 21:19 | 40.22891 | -77.24247 | 40014 ft | 439 kts | 259° |
| 2026-05-03 21:20 | 40.21670 | -77.32069 | 40015 ft | 438 kts | 259° |
| 2026-05-03 21:20 | 40.20449 | -77.39854 | 40020 ft | 436 kts | 259° |
| 2026-05-03 21:21 | 40.19228 | -77.47600 | 40028 ft | 434 kts | 259° |
| 2026-05-03 21:21 | 40.18014 | -77.55274 | 40033 ft | 433 kts | 259° |
| 2026-05-03 21:22 | 40.16789 | -77.62977 | 40019 ft | 432 kts | 259° |
| 2026-05-03 21:22 | 40.15561 | -77.70670 | 40034 ft | 433 kts | 259° |
| 2026-05-03 21:23 | 40.14325 | -77.78381 | 40037 ft | 434 kts | 259° |
| 2026-05-03 21:23 | 40.13538 | -77.86199 | 40033 ft | 435 kts | 267° |
| 2026-05-03 21:24 | 40.13589 | -77.94113 | 40041 ft | 436 kts | 270° |
| 2026-05-03 21:24 | 40.13702 | -78.02048 | 40032 ft | 438 kts | 270° |
| 2026-05-03 21:25 | 40.13795 | -78.09970 | 40025 ft | 439 kts | 270° |
| 2026-05-03 21:25 | 40.13876 | -78.17949 | 40018 ft | 439 kts | 270° |
| 2026-05-03 21:26 | 40.13949 | -78.25937 | 40017 ft | 440 kts | 270° |
| 2026-05-03 21:26 | 40.14017 | -78.33944 | 40023 ft | 440 kts | 270° |
| 2026-05-03 21:27 | 40.14080 | -78.41944 | 40017 ft | 440 kts | 270° |
| 2026-05-03 21:27 | 40.14137 | -78.49935 | 40013 ft | 440 kts | 270° |
| 2026-05-03 21:28 | 40.14180 | -78.56579 | 40019 ft | 439 kts | 270° |
| 2026-05-03 21:28 | 40.14227 | -78.64549 | 40020 ft | 439 kts | 270° |
| 2026-05-03 21:29 | 40.14269 | -78.72517 | 40027 ft | 438 kts | 270° |
| 2026-05-03 21:29 | 40.14310 | -78.81761 | 40021 ft | 437 kts | 270° |
| 2026-05-03 21:30 | 40.14326 | -78.85890 | 40018 ft | 437 kts | 270° |
| 2026-05-03 21:30 | 40.14353 | -78.93815 | 40027 ft | 436 kts | 270° |
| 2026-05-03 21:31 | 40.14368 | -78.98956 | 40028 ft | 436 kts | 270° |
| 2026-05-03 21:31 | 40.14386 | -79.06872 | 40041 ft | 436 kts | 270° |
| 2026-05-03 21:32 | 40.14400 | -79.14802 | 40042 ft | 436 kts | 270° |
| 2026-05-03 21:32 | 40.14416 | -79.17422 | 40047 ft | 436 kts | 271° |
| 2026-05-03 21:33 | 40.14441 | -79.19107 | 40051 ft | 436 kts | 271° |
| 2026-05-03 21:34 | 40.14467 | -79.20445 | 40048 ft | 436 kts | 271° |
| 2026-05-03 21:35 | 40.14670 | -79.28365 | 40046 ft | 437 kts | 272° |
| 2026-05-03 21:35 | 40.14878 | -79.36309 | 40043 ft | 437 kts | 272° |
| 2026-05-03 21:36 | 40.15064 | -79.44233 | 40046 ft | 438 kts | 272° |
| 2026-05-03 21:36 | 40.15236 | -79.52186 | 40043 ft | 438 kts | 272° |
| 2026-05-03 21:37 | 40.15402 | -79.60158 | 40047 ft | 438 kts | 272° |
| 2026-05-03 21:37 | 40.15562 | -79.68119 | 40054 ft | 438 kts | 272° |
| 2026-05-03 21:38 | 40.15715 | -79.76021 | 40041 ft | 438 kts | 271° |
| 2026-05-03 21:38 | 40.15864 | -79.83967 | 40042 ft | 437 kts | 272° |
| 2026-05-03 21:39 | 40.16008 | -79.91905 | 40036 ft | 436 kts | 272° |
| 2026-05-03 21:39 | 40.16146 | -79.99830 | 40038 ft | 435 kts | 271° |
| 2026-05-03 21:40 | 40.16278 | -80.07735 | 40052 ft | 434 kts | 271° |
| 2026-05-03 21:40 | 40.16405 | -80.15624 | 40048 ft | 434 kts | 271° |
| 2026-05-03 21:41 | 40.16526 | -80.23510 | 40048 ft | 433 kts | 271° |
| 2026-05-03 21:41 | 40.16613 | -80.29402 | 40047 ft | 433 kts | 271° |
| 2026-05-03 21:42 | 40.16724 | -80.37218 | 40045 ft | 433 kts | 271° |
| 2026-05-03 21:42 | 40.16830 | -80.45085 | 40050 ft | 433 kts | 271° |
| 2026-05-03 21:43 | 40.16931 | -80.52958 | 40054 ft | 432 kts | 271° |
| 2026-05-03 21:43 | 40.17027 | -80.60819 | 40057 ft | 432 kts | 271° |
| 2026-05-03 21:44 | 40.17117 | -80.68673 | 40020 ft | 432 kts | 271° |
| 2026-05-03 21:44 | 40.17202 | -80.76527 | 40017 ft | 432 kts | 271° |
| 2026-05-03 21:45 | 40.17282 | -80.84383 | 40027 ft | 432 kts | 271° |
| 2026-05-03 21:45 | 40.17357 | -80.92240 | 40041 ft | 432 kts | 271° |
| 2026-05-03 21:46 | 40.17406 | -81.00108 | 40044 ft | 432 kts | 270° |
| 2026-05-03 21:46 | 40.17336 | -81.07913 | 40056 ft | 432 kts | 270° |
| 2026-05-03 21:47 | 40.17242 | -81.15770 | 40058 ft | 432 kts | 270° |
| 2026-05-03 21:47 | 40.17158 | -81.23624 | 40054 ft | 432 kts | 270° |
| 2026-05-03 21:48 | 40.17075 | -81.31466 | 40056 ft | 431 kts | 269° |
| 2026-05-03 21:48 | 40.16988 | -81.39325 | 40051 ft | 431 kts | 269° |
| 2026-05-03 21:49 | 40.16895 | -81.47156 | 40051 ft | 431 kts | 269° |
| 2026-05-03 21:49 | 40.16798 | -81.55001 | 40049 ft | 430 kts | 269° |
| 2026-05-03 21:50 | 40.16712 | -81.62765 | 40049 ft | 429 kts | 271° |
| 2026-05-03 21:50 | 40.16942 | -81.70558 | 40053 ft | 429 kts | 272° |
| 2026-05-03 21:51 | 40.17224 | -81.78348 | 40052 ft | 428 kts | 272° |
| 2026-05-03 21:51 | 40.17496 | -81.86138 | 40048 ft | 428 kts | 272° |
| 2026-05-03 21:52 | 40.17754 | -81.93936 | 40049 ft | 428 kts | 272° |
| 2026-05-03 21:52 | 40.18002 | -82.01716 | 40048 ft | 428 kts | 272° |
| 2026-05-03 21:53 | 40.18243 | -82.09505 | 40044 ft | 429 kts | 272° |
| 2026-05-03 21:53 | 40.18478 | -82.17247 | 40042 ft | 429 kts | 272° |
| 2026-05-03 21:54 | 40.18710 | -82.25039 | 40042 ft | 429 kts | 272° |
| 2026-05-03 21:54 | 40.18937 | -82.32836 | 40044 ft | 429 kts | 272° |
| 2026-05-03 21:55 | 40.19159 | -82.40644 | 40048 ft | 429 kts | 272° |
| 2026-05-03 21:55 | 40.19375 | -82.48459 | 40038 ft | 430 kts | 271° |
| 2026-05-03 21:56 | 40.19587 | -82.56287 | 40039 ft | 431 kts | 271° |
| 2026-05-03 21:56 | 40.19793 | -82.64077 | 40038 ft | 431 kts | 271° |
| 2026-05-03 21:57 | 40.19995 | -82.71933 | 40046 ft | 432 kts | 271° |
| 2026-05-03 21:57 | 40.20191 | -82.79805 | 40027 ft | 433 kts | 271° |
| 2026-05-03 21:58 | 40.20384 | -82.87684 | 40041 ft | 433 kts | 271° |
| 2026-05-03 21:58 | 40.20570 | -82.95568 | 40024 ft | 434 kts | 271° |
| 2026-05-03 21:59 | 40.20752 | -83.03470 | 40022 ft | 434 kts | 271° |
| 2026-05-03 21:59 | 40.20927 | -83.11321 | 40013 ft | 435 kts | 271° |
| 2026-05-03 22:00 | 40.21098 | -83.19224 | 40013 ft | 434 kts | 271° |
| 2026-05-03 22:00 | 40.21264 | -83.27132 | 40013 ft | 434 kts | 271° |
| 2026-05-03 22:01 | 40.21424 | -83.35031 | 40008 ft | 434 kts | 271° |
| 2026-05-03 22:01 | 40.21579 | -83.42942 | 40007 ft | 435 kts | 271° |
| 2026-05-03 22:02 | 40.21728 | -83.50845 | 40039 ft | 435 kts | 271° |
| 2026-05-03 22:02 | 40.21871 | -83.58711 | 40037 ft | 434 kts | 271° |
| 2026-05-03 22:03 | 40.22010 | -83.66620 | 40030 ft | 434 kts | 271° |
| 2026-05-03 22:03 | 40.22144 | -83.74518 | 40028 ft | 434 kts | 271° |
| 2026-05-03 22:04 | 40.22271 | -83.82417 | 40031 ft | 434 kts | 271° |
| 2026-05-03 22:04 | 40.22394 | -83.90314 | 40031 ft | 434 kts | 271° |
| 2026-05-03 22:05 | 40.22511 | -83.98202 | 40026 ft | 433 kts | 271° |
| 2026-05-03 22:05 | 40.22622 | -84.06039 | 40030 ft | 433 kts | 271° |
| 2026-05-03 22:06 | 40.22728 | -84.13934 | 40033 ft | 433 kts | 271° |
| 2026-05-03 22:06 | 40.22829 | -84.21813 | 40034 ft | 433 kts | 271° |
| 2026-05-03 22:07 | 40.22924 | -84.29697 | 40031 ft | 433 kts | 271° |
| 2026-05-03 22:07 | 40.23014 | -84.37521 | 40034 ft | 433 kts | 271° |
| 2026-05-03 22:08 | 40.23099 | -84.45414 | 40018 ft | 433 kts | 271° |
| 2026-05-03 22:08 | 40.23178 | -84.53304 | 40019 ft | 434 kts | 271° |
| 2026-05-03 22:09 | 40.23253 | -84.61204 | 40019 ft | 434 kts | 271° |
| 2026-05-03 22:10 | 40.23354 | -84.73056 | 40016 ft | 435 kts | 271° |
| 2026-05-03 22:10 | 40.23415 | -84.80957 | 40023 ft | 435 kts | 271° |
| 2026-05-03 22:11 | 40.23471 | -84.88878 | 40005 ft | 435 kts | 271° |
| 2026-05-03 22:11 | 40.23521 | -84.96807 | 40005 ft | 435 kts | 271° |
| 2026-05-03 22:12 | 40.23566 | -85.04736 | 39995 ft | 436 kts | 271° |
| 2026-05-03 22:12 | 40.23605 | -85.12615 | 40003 ft | 435 kts | 271° |
| 2026-05-03 22:13 | 40.23640 | -85.20545 | 40006 ft | 435 kts | 271° |
| 2026-05-03 22:13 | 40.23669 | -85.28474 | 40007 ft | 435 kts | 271° |
| 2026-05-03 22:14 | 40.23693 | -85.36395 | 39974 ft | 435 kts | 271° |
| 2026-05-03 22:14 | 40.23788 | -85.44312 | 39961 ft | 435 kts | 272° |
| 2026-05-03 22:15 | 40.24085 | -85.52162 | 39972 ft | 434 kts | 273° |
| 2026-05-03 22:15 | 40.24398 | -85.60045 | 39969 ft | 434 kts | 273° |
| 2026-05-03 22:16 | 40.24681 | -85.67941 | 39969 ft | 434 kts | 273° |
| 2026-05-03 22:16 | 40.24901 | -85.74544 | 39976 ft | 434 kts | 273° |
| 2026-05-03 22:17 | 40.25154 | -85.82395 | 39984 ft | 434 kts | 272° |
| 2026-05-03 22:17 | 40.25404 | -85.90295 | 39977 ft | 434 kts | 272° |
| 2026-05-03 22:18 | 40.25648 | -85.98194 | 39981 ft | 434 kts | 272° |
| 2026-05-03 22:18 | 40.25886 | -86.06092 | 39981 ft | 433 kts | 272° |
| 2026-05-03 22:19 | 40.26118 | -86.13924 | 39977 ft | 433 kts | 272° |
| 2026-05-03 22:19 | 40.26346 | -86.21810 | 39966 ft | 434 kts | 272° |
| 2026-05-03 22:20 | 40.26569 | -86.29705 | 39953 ft | 434 kts | 272° |
| 2026-05-03 22:20 | 40.26787 | -86.37614 | 39943 ft | 435 kts | 272° |
| 2026-05-03 22:21 | 40.27000 | -86.45510 | 39935 ft | 435 kts | 272° |
| 2026-05-03 22:21 | 40.27207 | -86.53438 | 39934 ft | 436 kts | 272° |
| 2026-05-03 22:22 | 40.27409 | -86.61380 | 39931 ft | 437 kts | 272° |
| 2026-05-03 22:22 | 40.27607 | -86.69343 | 39940 ft | 438 kts | 272° |
| 2026-05-03 22:23 | 40.27799 | -86.77275 | 39939 ft | 438 kts | 272° |
| 2026-05-03 22:23 | 40.27986 | -86.85270 | 39938 ft | 438 kts | 272° |
| 2026-05-03 22:24 | 40.28168 | -86.93249 | 39938 ft | 438 kts | 272° |
| 2026-05-03 22:24 | 40.28344 | -87.01231 | 39935 ft | 438 kts | 272° |
| 2026-05-03 22:25 | 40.28513 | -87.09151 | 39943 ft | 438 kts | 272° |
| 2026-05-03 22:25 | 40.28678 | -87.17133 | 39943 ft | 438 kts | 272° |
| 2026-05-03 22:26 | 40.28838 | -87.25115 | 39943 ft | 438 kts | 272° |
| 2026-05-03 22:26 | 40.28992 | -87.33101 | 39927 ft | 438 kts | 273° |
| 2026-05-03 22:27 | 40.29141 | -87.41069 | 39939 ft | 438 kts | 273° |
| 2026-05-03 22:27 | 40.29284 | -87.48986 | 39928 ft | 438 kts | 272° |
| 2026-05-03 22:28 | 40.29417 | -87.56962 | 39925 ft | 437 kts | 272° |
| 2026-05-03 22:28 | 40.29370 | -87.64939 | 39932 ft | 438 kts | 270° |
| 2026-05-03 22:29 | 40.29243 | -87.72917 | 39919 ft | 438 kts | 271° |
| 2026-05-03 22:29 | 40.29124 | -87.80907 | 39932 ft | 438 kts | 271° |
| 2026-05-03 22:30 | 40.29018 | -87.88888 | 39928 ft | 438 kts | 271° |
| 2026-05-03 22:30 | 40.28913 | -87.96868 | 39928 ft | 438 kts | 271° |
| 2026-05-03 22:31 | 40.28803 | -88.04848 | 39926 ft | 438 kts | 271° |
| 2026-05-03 22:31 | 40.28688 | -88.12783 | 39901 ft | 438 kts | 271° |
| 2026-05-03 22:32 | 40.28566 | -88.20764 | 39905 ft | 438 kts | 271° |
| 2026-05-03 22:32 | 40.28439 | -88.28761 | 39901 ft | 439 kts | 271° |
| 2026-05-03 22:33 | 40.28306 | -88.36749 | 39906 ft | 439 kts | 271° |
| 2026-05-03 22:33 | 40.28168 | -88.44752 | 39917 ft | 439 kts | 271° |
| 2026-05-03 22:34 | 40.28023 | -88.52750 | 39905 ft | 439 kts | 271° |
| 2026-05-03 22:34 | 40.27874 | -88.60747 | 39904 ft | 439 kts | 271° |
| 2026-05-03 22:35 | 40.27719 | -88.68726 | 39891 ft | 438 kts | 271° |
| 2026-05-03 22:35 | 40.27559 | -88.76695 | 39893 ft | 437 kts | 271° |
| 2026-05-03 22:36 | 40.27396 | -88.84581 | 39893 ft | 436 kts | 271° |
| 2026-05-03 22:36 | 40.27225 | -88.92522 | 39893 ft | 435 kts | 271° |
| 2026-05-03 22:37 | 40.27051 | -89.00435 | 39888 ft | 434 kts | 271° |
| 2026-05-03 22:37 | 40.26871 | -89.08331 | 39882 ft | 434 kts | 271° |
| 2026-05-03 22:38 | 40.26686 | -89.16235 | 39874 ft | 434 kts | 271° |
| 2026-05-03 22:38 | 40.26495 | -89.24134 | 39855 ft | 434 kts | 271° |
| 2026-05-03 22:39 | 40.26298 | -89.32034 | 39870 ft | 433 kts | 271° |
| 2026-05-03 22:39 | 40.26098 | -89.39871 | 39868 ft | 433 kts | 271° |
| 2026-05-03 22:40 | 40.25892 | -89.47747 | 39872 ft | 433 kts | 271° |
| 2026-05-03 22:40 | 40.25680 | -89.55627 | 39873 ft | 433 kts | 271° |
| 2026-05-03 22:41 | 40.25463 | -89.63526 | 39871 ft | 434 kts | 271° |
| 2026-05-03 22:41 | 40.25240 | -89.71416 | 39864 ft | 433 kts | 270° |
| 2026-05-03 22:42 | 40.25012 | -89.79295 | 39868 ft | 433 kts | 270° |
| 2026-05-03 22:42 | 40.24781 | -89.87116 | 39877 ft | 433 kts | 270° |
| 2026-05-03 22:43 | 40.24543 | -89.94984 | 39871 ft | 433 kts | 270° |
| 2026-05-03 22:43 | 40.24299 | -90.02858 | 39859 ft | 432 kts | 271° |
| 2026-05-03 22:44 | 40.24051 | -90.10710 | 39867 ft | 432 kts | 271° |
| 2026-05-03 22:44 | 40.23798 | -90.18563 | 39872 ft | 432 kts | 271° |
| 2026-05-03 22:45 | 40.23540 | -90.26417 | 39876 ft | 432 kts | 270° |
| 2026-05-03 22:45 | 40.23276 | -90.34269 | 39875 ft | 432 kts | 270° |
| 2026-05-03 22:46 | 40.23007 | -90.42119 | 39863 ft | 431 kts | 271° |
| 2026-05-03 22:46 | 40.22736 | -90.49913 | 39867 ft | 431 kts | 271° |
| 2026-05-03 22:47 | 40.22458 | -90.57751 | 39872 ft | 430 kts | 271° |
| 2026-05-03 22:47 | 40.22175 | -90.65571 | 39872 ft | 430 kts | 270° |
| 2026-05-03 22:48 | 40.21888 | -90.73397 | 39870 ft | 430 kts | 270° |
| 2026-05-03 22:48 | 40.21595 | -90.81206 | 39864 ft | 429 kts | 271° |
| 2026-05-03 22:49 | 40.21297 | -90.89012 | 39871 ft | 429 kts | 271° |
| 2026-05-03 22:49 | 40.20995 | -90.96813 | 39875 ft | 429 kts | 270° |
| 2026-05-03 22:50 | 40.20687 | -91.04607 | 39871 ft | 429 kts | 270° |
| 2026-05-03 22:50 | 40.20376 | -91.12354 | 39870 ft | 429 kts | 270° |
| 2026-05-03 22:51 | 40.20058 | -91.20153 | 39870 ft | 429 kts | 271° |
| 2026-05-03 22:51 | 40.19735 | -91.27935 | 39872 ft | 428 kts | 270° |
| 2026-05-03 22:52 | 40.19407 | -91.35722 | 39869 ft | 428 kts | 270° |
| 2026-05-03 22:52 | 40.19073 | -91.43507 | 39873 ft | 429 kts | 270° |
| 2026-05-03 22:53 | 40.18734 | -91.51293 | 39870 ft | 429 kts | 270° |
| 2026-05-03 22:53 | 40.18392 | -91.59033 | 39873 ft | 428 kts | 270° |
| 2026-05-03 22:54 | 40.18043 | -91.66802 | 39877 ft | 427 kts | 270° |
| 2026-05-03 22:54 | 40.17690 | -91.74565 | 39886 ft | 427 kts | 270° |
| 2026-05-03 22:55 | 40.17332 | -91.82317 | 39890 ft | 427 kts | 270° |
| 2026-05-03 22:55 | 40.16971 | -91.90018 | 39889 ft | 427 kts | 270° |
| 2026-05-03 22:56 | 40.16603 | -91.97751 | 39885 ft | 426 kts | 270° |
| 2026-05-03 22:56 | 40.16231 | -92.05460 | 39894 ft | 425 kts | 270° |
| 2026-05-03 22:57 | 40.15855 | -92.13172 | 39897 ft | 424 kts | 270° |
| 2026-05-03 22:57 | 40.15474 | -92.20866 | 39893 ft | 424 kts | 270° |
| 2026-05-03 22:58 | 40.15087 | -92.28567 | 39890 ft | 424 kts | 270° |
| 2026-05-03 22:58 | 40.14697 | -92.36247 | 39885 ft | 423 kts | 270° |
| 2026-05-03 22:59 | 40.14301 | -92.43926 | 39886 ft | 423 kts | 270° |
| 2026-05-03 22:59 | 40.13902 | -92.51589 | 39890 ft | 422 kts | 270° |
| 2026-05-03 23:00 | 40.13533 | -92.59186 | 39889 ft | 421 kts | 272° |
| 2026-05-03 23:00 | 40.13722 | -92.66793 | 39896 ft | 418 kts | 276° |
| 2026-05-03 23:01 | 40.13988 | -92.74400 | 39894 ft | 418 kts | 276° |
| 2026-05-03 23:01 | 40.14238 | -92.82000 | 39904 ft | 418 kts | 276° |
| 2026-05-03 23:02 | 40.14438 | -92.88317 | 39905 ft | 419 kts | 276° |
| 2026-05-03 23:02 | 40.14672 | -92.95926 | 39902 ft | 419 kts | 276° |
| 2026-05-03 23:03 | 40.14901 | -93.03540 | 39901 ft | 419 kts | 276° |
| 2026-05-03 23:03 | 40.15124 | -93.11135 | 39896 ft | 418 kts | 276° |
| 2026-05-03 23:04 | 40.15341 | -93.18724 | 39896 ft | 417 kts | 276° |
| 2026-05-03 23:04 | 40.15553 | -93.26244 | 39892 ft | 416 kts | 276° |
| 2026-05-03 23:05 | 40.15761 | -93.33810 | 39897 ft | 416 kts | 276° |
| 2026-05-03 23:05 | 40.15964 | -93.41369 | 39894 ft | 416 kts | 276° |
| 2026-05-03 23:06 | 40.16161 | -93.48920 | 39896 ft | 416 kts | 276° |
| 2026-05-03 23:06 | 40.16354 | -93.56476 | 39887 ft | 416 kts | 276° |
| 2026-05-03 23:07 | 40.16541 | -93.64025 | 39892 ft | 416 kts | 276° |
| 2026-05-03 23:07 | 40.16724 | -93.71585 | 39896 ft | 416 kts | 275° |
| 2026-05-03 23:08 | 40.16902 | -93.79139 | 39893 ft | 416 kts | 275° |
| 2026-05-03 23:08 | 40.17075 | -93.86702 | 39889 ft | 416 kts | 275° |
| 2026-05-03 23:09 | 40.17244 | -93.94258 | 39889 ft | 416 kts | 275° |
| 2026-05-03 23:09 | 40.17406 | -94.01765 | 39887 ft | 416 kts | 275° |
| 2026-05-03 23:10 | 40.17564 | -94.09324 | 39884 ft | 416 kts | 275° |
| 2026-05-03 23:10 | 40.17717 | -94.16876 | 39890 ft | 415 kts | 275° |
| 2026-05-03 23:11 | 40.17866 | -94.24431 | 39890 ft | 415 kts | 275° |
| 2026-05-03 23:11 | 40.18009 | -94.31989 | 39890 ft | 415 kts | 275° |
| 2026-05-03 23:12 | 40.18147 | -94.39538 | 39886 ft | 415 kts | 275° |
| 2026-05-03 23:12 | 40.18281 | -94.47075 | 39887 ft | 415 kts | 275° |
| 2026-05-03 23:13 | 40.18409 | -94.54615 | 39884 ft | 415 kts | 275° |
| 2026-05-03 23:13 | 40.18533 | -94.62149 | 39875 ft | 414 kts | 275° |
| 2026-05-03 23:14 | 40.18651 | -94.69669 | 39885 ft | 413 kts | 275° |
| 2026-05-03 23:14 | 40.18765 | -94.77180 | 39884 ft | 413 kts | 275° |
| 2026-05-03 23:15 | 40.18873 | -94.84686 | 39888 ft | 413 kts | 275° |
| 2026-05-03 23:15 | 40.18977 | -94.92196 | 39886 ft | 413 kts | 275° |
| 2026-05-03 23:16 | 40.19075 | -94.99651 | 39886 ft | 412 kts | 275° |
| 2026-05-03 23:16 | 40.19168 | -95.07149 | 39884 ft | 412 kts | 275° |
| 2026-05-03 23:17 | 40.19258 | -95.14655 | 39882 ft | 412 kts | 275° |
| 2026-05-03 23:17 | 40.19341 | -95.22164 | 39880 ft | 412 kts | 274° |
| 2026-05-03 23:18 | 40.19420 | -95.29619 | 39873 ft | 412 kts | 274° |
| 2026-05-03 23:18 | 40.19495 | -95.37117 | 39873 ft | 412 kts | 274° |
| 2026-05-03 23:19 | 40.19565 | -95.44613 | 39863 ft | 412 kts | 274° |
| 2026-05-03 23:19 | 40.19630 | -95.52101 | 39865 ft | 411 kts | 274° |
| 2026-05-03 23:20 | 40.19690 | -95.59587 | 39869 ft | 411 kts | 274° |
| 2026-05-03 23:20 | 40.19745 | -95.67078 | 39869 ft | 412 kts | 274° |
| 2026-05-03 23:21 | 40.19795 | -95.74517 | 39869 ft | 411 kts | 274° |
| 2026-05-03 23:21 | 40.19841 | -95.82004 | 39878 ft | 411 kts | 274° |
| 2026-05-03 23:22 | 40.19900 | -95.93241 | 39876 ft | 411 kts | 274° |
| 2026-05-03 23:22 | 40.19933 | -96.00693 | 39870 ft | 412 kts | 274° |
| 2026-05-03 23:23 | 40.19962 | -96.08183 | 39871 ft | 412 kts | 274° |
| 2026-05-03 23:23 | 40.19987 | -96.15670 | 39868 ft | 411 kts | 273° |
| 2026-05-03 23:24 | 40.20021 | -96.23146 | 39881 ft | 410 kts | 274° |
| 2026-05-03 23:24 | 40.20159 | -96.30615 | 39880 ft | 410 kts | 275° |
| 2026-05-03 23:25 | 40.20317 | -96.38082 | 39884 ft | 410 kts | 275° |
| 2026-05-03 23:25 | 40.20462 | -96.45550 | 39875 ft | 411 kts | 274° |
| 2026-05-03 23:26 | 40.20595 | -96.53021 | 39869 ft | 410 kts | 274° |
| 2026-05-03 23:26 | 40.20719 | -96.60440 | 39879 ft | 410 kts | 274° |
| 2026-05-03 23:27 | 40.20839 | -96.67959 | 39879 ft | 411 kts | 274° |
| 2026-05-03 23:27 | 40.20954 | -96.75380 | 39880 ft | 411 kts | 274° |
| 2026-05-03 23:28 | 40.21064 | -96.82855 | 39881 ft | 411 kts | 274° |
| 2026-05-03 23:28 | 40.21169 | -96.90324 | 39874 ft | 410 kts | 274° |
| 2026-05-03 23:29 | 40.21270 | -96.97796 | 39881 ft | 411 kts | 274° |
| 2026-05-03 23:29 | 40.21366 | -97.05272 | 39877 ft | 411 kts | 274° |
| 2026-05-03 23:30 | 40.21457 | -97.12761 | 39873 ft | 411 kts | 274° |
| 2026-05-03 23:30 | 40.21543 | -97.20201 | 39872 ft | 411 kts | 274° |
| 2026-05-03 23:31 | 40.21625 | -97.27689 | 39866 ft | 412 kts | 274° |
| 2026-05-03 23:31 | 40.21702 | -97.35187 | 39865 ft | 411 kts | 274° |
| 2026-05-03 23:32 | 40.21773 | -97.42668 | 39868 ft | 411 kts | 274° |
| 2026-05-03 23:32 | 40.21840 | -97.50161 | 39869 ft | 411 kts | 273° |
| 2026-05-03 23:33 | 40.21903 | -97.57602 | 39873 ft | 411 kts | 273° |
| 2026-05-03 23:33 | 40.21960 | -97.65098 | 39861 ft | 411 kts | 273° |
| 2026-05-03 23:34 | 40.22013 | -97.72583 | 39879 ft | 412 kts | 273° |
| 2026-05-03 23:34 | 40.22061 | -97.80091 | 39871 ft | 412 kts | 273° |
| 2026-05-03 23:35 | 40.22104 | -97.87592 | 39867 ft | 412 kts | 273° |
| 2026-05-03 23:35 | 40.22142 | -97.95091 | 39868 ft | 412 kts | 273° |
| 2026-05-03 23:36 | 40.22175 | -98.02539 | 39857 ft | 412 kts | 273° |
| 2026-05-03 23:36 | 40.22204 | -98.10050 | 39875 ft | 412 kts | 273° |
| 2026-05-03 23:37 | 40.22228 | -98.17555 | 39867 ft | 412 kts | 272° |
| 2026-05-03 23:37 | 40.22247 | -98.25065 | 39863 ft | 413 kts | 272° |
| 2026-05-03 23:38 | 40.22261 | -98.32582 | 39864 ft | 413 kts | 272° |
| 2026-05-03 23:38 | 40.22270 | -98.40104 | 39868 ft | 413 kts | 272° |
| 2026-05-03 23:39 | 40.22274 | -98.47624 | 39868 ft | 413 kts | 272° |
| 2026-05-03 23:39 | 40.22274 | -98.55096 | 39873 ft | 413 kts | 272° |
| 2026-05-03 23:40 | 40.22268 | -98.62632 | 39856 ft | 414 kts | 272° |
| 2026-05-03 23:40 | 40.22258 | -98.70163 | 39863 ft | 414 kts | 272° |
| 2026-05-03 23:41 | 40.22243 | -98.77695 | 39858 ft | 413 kts | 272° |
| 2026-05-03 23:41 | 40.22223 | -98.85214 | 39861 ft | 414 kts | 272° |
| 2026-05-03 23:42 | 40.22198 | -98.92748 | 39865 ft | 414 kts | 272° |
| 2026-05-03 23:42 | 40.22169 | -99.00278 | 39865 ft | 414 kts | 272° |
| 2026-05-03 23:43 | 40.22134 | -99.07770 | 39871 ft | 414 kts | 272° |
| 2026-05-03 23:43 | 40.22095 | -99.15306 | 39860 ft | 414 kts | 271° |
| 2026-05-03 23:44 | 40.22050 | -99.22851 | 39871 ft | 415 kts | 271° |
| 2026-05-03 23:44 | 40.22001 | -99.30407 | 39872 ft | 415 kts | 271° |
| 2026-05-03 23:45 | 40.21946 | -99.37973 | 39861 ft | 415 kts | 271° |
| 2026-05-03 23:45 | 40.21887 | -99.45534 | 39850 ft | 416 kts | 271° |
| 2026-05-03 23:46 | 40.21823 | -99.53101 | 39850 ft | 416 kts | 271° |
| 2026-05-03 23:46 | 40.21754 | -99.60675 | 39851 ft | 416 kts | 271° |
| 2026-05-03 23:47 | 40.21680 | -99.68201 | 39854 ft | 417 kts | 271° |
| 2026-05-03 23:47 | 40.21600 | -99.75793 | 39853 ft | 417 kts | 271° |
| 2026-05-03 23:48 | 40.21516 | -99.83384 | 39847 ft | 417 kts | 271° |
| 2026-05-03 23:48 | 40.21427 | -99.90982 | 39859 ft | 418 kts | 271° |
| 2026-05-03 23:49 | 40.21332 | -99.98592 | 39865 ft | 418 kts | 271° |
| 2026-05-03 23:49 | 40.21234 | -100.06165 | 39867 ft | 419 kts | 271° |
| 2026-05-03 23:50 | 40.21146 | -100.12551 | 39871 ft | 419 kts | 271° |
| 2026-05-03 23:50 | 40.21037 | -100.20178 | 39871 ft | 419 kts | 271° |
| 2026-05-03 23:51 | 40.20924 | -100.27806 | 39859 ft | 419 kts | 271° |
| 2026-05-03 23:51 | 40.20805 | -100.35396 | 39876 ft | 419 kts | 271° |
| 2026-05-03 23:52 | 40.20682 | -100.43028 | 39883 ft | 419 kts | 271° |
| 2026-05-03 23:52 | 40.20553 | -100.50656 | 39887 ft | 420 kts | 270° |
| 2026-05-03 23:53 | 40.20421 | -100.58256 | 39879 ft | 420 kts | 270° |
| 2026-05-03 23:53 | 40.20176 | -100.65893 | 39887 ft | 420 kts | 269° |
| 2026-05-03 23:54 | 40.19803 | -100.73527 | 39886 ft | 420 kts | 268° |
| 2026-05-03 23:54 | 40.19428 | -100.81145 | 39876 ft | 420 kts | 268° |
| 2026-05-03 23:55 | 40.19066 | -100.88734 | 39869 ft | 420 kts | 269° |
| 2026-05-03 23:55 | 40.18704 | -100.96376 | 39854 ft | 420 kts | 269° |
| 2026-05-03 23:56 | 40.18340 | -101.04013 | 39849 ft | 420 kts | 269° |
| 2026-05-03 23:56 | 40.17971 | -101.11645 | 39846 ft | 420 kts | 268° |
| 2026-05-03 23:57 | 40.17597 | -101.19276 | 39843 ft | 420 kts | 268° |
| 2026-05-03 23:57 | 40.17218 | -101.26906 | 39843 ft | 420 kts | 268° |
| 2026-05-03 23:58 | 40.16834 | -101.34534 | 39838 ft | 420 kts | 268° |
| 2026-05-03 23:58 | 40.16448 | -101.42108 | 39846 ft | 421 kts | 268° |
| 2026-05-03 23:59 | 40.16051 | -101.49792 | 39837 ft | 421 kts | 268° |
| 2026-05-03 23:59 | 40.15654 | -101.57376 | 39843 ft | 421 kts | 268° |
| 2026-05-04 00:00 | 40.15248 | -101.65024 | 39846 ft | 421 kts | 268° |
| 2026-05-04 00:00 | 40.14838 | -101.72666 | 39843 ft | 421 kts | 268° |
| 2026-05-04 00:01 | 40.14423 | -101.80307 | 39847 ft | 421 kts | 268° |
| 2026-05-04 00:01 | 40.14003 | -101.87949 | 39849 ft | 422 kts | 268° |
| 2026-05-04 00:02 | 40.13577 | -101.95595 | 39843 ft | 422 kts | 268° |
| 2026-05-04 00:02 | 40.13146 | -102.03256 | 39844 ft | 422 kts | 268° |
| 2026-05-04 00:03 | 40.12713 | -102.10857 | 39840 ft | 422 kts | 268° |
| 2026-05-04 00:03 | 40.12272 | -102.18510 | 39845 ft | 422 kts | 268° |
| 2026-05-04 00:04 | 40.11825 | -102.26168 | 39848 ft | 422 kts | 268° |
| 2026-05-04 00:04 | 40.11374 | -102.33815 | 39844 ft | 422 kts | 268° |
| 2026-05-04 00:05 | 40.10921 | -102.41413 | 39830 ft | 422 kts | 268° |
| 2026-05-04 00:05 | 40.10460 | -102.49056 | 39842 ft | 422 kts | 267° |
| 2026-05-04 00:06 | 40.09994 | -102.56696 | 39848 ft | 422 kts | 267° |
| 2026-05-04 00:06 | 40.09523 | -102.64342 | 39845 ft | 422 kts | 267° |
| 2026-05-04 00:07 | 40.09046 | -102.71986 | 39843 ft | 422 kts | 267° |
| 2026-05-04 00:07 | 40.08565 | -102.79634 | 39831 ft | 422 kts | 267° |
| 2026-05-04 00:08 | 40.08081 | -102.87233 | 39842 ft | 423 kts | 267° |
| 2026-05-04 00:08 | 40.07589 | -102.94882 | 39838 ft | 423 kts | 267° |
| 2026-05-04 00:09 | 40.07091 | -103.02554 | 39834 ft | 424 kts | 267° |
| 2026-05-04 00:09 | 40.06587 | -103.10227 | 39836 ft | 424 kts | 267° |
| 2026-05-04 00:10 | 40.06078 | -103.17898 | 39841 ft | 424 kts | 267° |
| 2026-05-04 00:10 | 40.05565 | -103.25569 | 39834 ft | 424 kts | 267° |
| 2026-05-04 00:11 | 40.05050 | -103.33176 | 39833 ft | 423 kts | 267° |
| 2026-05-04 00:11 | 40.04527 | -103.40831 | 39824 ft | 423 kts | 267° |
| 2026-05-04 00:12 | 40.04000 | -103.48474 | 39823 ft | 422 kts | 267° |
| 2026-05-04 00:12 | 40.03468 | -103.56108 | 39806 ft | 422 kts | 267° |
| 2026-05-04 00:13 | 40.02936 | -103.63681 | 39816 ft | 421 kts | 267° |
| 2026-05-04 00:13 | 40.02395 | -103.71298 | 39804 ft | 421 kts | 267° |
| 2026-05-04 00:14 | 40.01850 | -103.78912 | 39803 ft | 421 kts | 267° |
| 2026-05-04 00:14 | 40.01301 | -103.86499 | 39801 ft | 421 kts | 266° |
| 2026-05-04 00:15 | 40.00746 | -103.94103 | 39799 ft | 421 kts | 266° |
| 2026-05-04 00:15 | 40.00187 | -104.01696 | 39803 ft | 420 kts | 266° |
| 2026-05-04 00:16 | 39.99623 | -104.09286 | 39803 ft | 420 kts | 266° |
| 2026-05-04 00:16 | 39.99058 | -104.16836 | 39809 ft | 420 kts | 266° |
| 2026-05-04 00:17 | 39.98484 | -104.24423 | 39845 ft | 420 kts | 266° |
| 2026-05-04 00:17 | 39.97904 | -104.32023 | 39871 ft | 420 kts | 266° |
| 2026-05-04 00:18 | 39.97321 | -104.39606 | 39903 ft | 420 kts | 266° |
| 2026-05-04 00:18 | 39.96733 | -104.47181 | 39921 ft | 420 kts | 266° |
| 2026-05-04 00:19 | 39.96143 | -104.54707 | 39958 ft | 420 kts | 266° |
| 2026-05-04 00:19 | 39.95544 | -104.62292 | 39984 ft | 420 kts | 266° |
| 2026-05-04 00:20 | 39.94941 | -104.69871 | 39990 ft | 420 kts | 266° |
| 2026-05-04 00:20 | 39.94333 | -104.77448 | 39974 ft | 420 kts | 266° |
| 2026-05-04 00:21 | 39.93721 | -104.85005 | 39948 ft | 420 kts | 266° |
| 2026-05-04 00:21 | 39.93104 | -104.92571 | 39921 ft | 420 kts | 266° |
| 2026-05-04 00:22 | 39.92481 | -105.00142 | 40004 ft | 420 kts | 265° |
| 2026-05-04 00:22 | 39.91859 | -105.07648 | 40011 ft | 419 kts | 265° |
| 2026-05-04 00:23 | 39.91227 | -105.15199 | 40020 ft | 419 kts | 265° |
| 2026-05-04 00:23 | 39.90591 | -105.22747 | 40005 ft | 419 kts | 265° |
| 2026-05-04 00:24 | 39.89953 | -105.30281 | 39950 ft | 418 kts | 265° |
| 2026-05-04 00:24 | 39.89310 | -105.37794 | 39940 ft | 418 kts | 265° |
| 2026-05-04 00:25 | 39.88658 | -105.45329 | 39945 ft | 419 kts | 265° |
| 2026-05-04 00:25 | 39.88002 | -105.52887 | 39945 ft | 420 kts | 265° |
| 2026-05-04 00:26 | 39.87343 | -105.60415 | 39942 ft | 422 kts | 265° |
| 2026-05-04 00:26 | 39.86673 | -105.68013 | 39964 ft | 423 kts | 265° |
| 2026-05-04 00:27 | 39.85996 | -105.75638 | 39951 ft | 425 kts | 265° |
| 2026-05-04 00:27 | 39.85310 | -105.83273 | 39968 ft | 425 kts | 264° |
| 2026-05-04 00:28 | 39.84621 | -105.90911 | 39975 ft | 426 kts | 264° |
| 2026-05-04 00:28 | 39.83924 | -105.98570 | 39959 ft | 426 kts | 264° |
| 2026-05-04 00:29 | 39.83224 | -106.06221 | 39966 ft | 425 kts | 264° |
| 2026-05-04 00:29 | 39.82520 | -106.13856 | 39957 ft | 425 kts | 264° |
| 2026-05-04 00:30 | 39.81816 | -106.21424 | 39955 ft | 424 kts | 264° |
| 2026-05-04 00:30 | 39.81105 | -106.29030 | 39958 ft | 424 kts | 264° |
| 2026-05-04 00:31 | 39.80388 | -106.36645 | 39928 ft | 422 kts | 264° |
| 2026-05-04 00:31 | 39.79668 | -106.44214 | 39937 ft | 421 kts | 264° |
| 2026-05-04 00:32 | 39.78946 | -106.51783 | 39935 ft | 420 kts | 264° |
| 2026-05-04 00:32 | 39.78181 | -106.59260 | 39932 ft | 420 kts | 263° |
| 2026-05-04 00:33 | 39.76937 | -106.70546 | 39928 ft | 420 kts | 263° |
| 2026-05-04 00:34 | 39.76108 | -106.78062 | 39936 ft | 419 kts | 263° |
| 2026-05-04 00:34 | 39.75279 | -106.85568 | 39937 ft | 419 kts | 263° |
| 2026-05-04 00:35 | 39.74445 | -106.93092 | 40054 ft | 420 kts | 263° |
| 2026-05-04 00:35 | 39.73607 | -107.00612 | 40031 ft | 420 kts | 263° |
| 2026-05-04 00:36 | 39.72769 | -107.08090 | 40010 ft | 420 kts | 263° |
| 2026-05-04 00:36 | 39.71923 | -107.15595 | 39986 ft | 419 kts | 263° |
| 2026-05-04 00:37 | 39.71074 | -107.23079 | 39990 ft | 418 kts | 263° |
| 2026-05-04 00:37 | 39.70217 | -107.30558 | 39953 ft | 419 kts | 263° |
| 2026-05-04 00:38 | 39.69504 | -107.36777 | 39935 ft | 419 kts | 263° |
| 2026-05-04 00:38 | 39.68640 | -107.44270 | 39938 ft | 420 kts | 262° |
| 2026-05-04 00:39 | 39.67769 | -107.51780 | 39947 ft | 421 kts | 262° |
| 2026-05-04 00:39 | 39.66890 | -107.59298 | 39953 ft | 421 kts | 262° |
| 2026-05-04 00:40 | 39.66011 | -107.66807 | 39967 ft | 420 kts | 262° |
| 2026-05-04 00:40 | 39.65124 | -107.74315 | 39972 ft | 420 kts | 262° |
| 2026-05-04 00:41 | 39.64241 | -107.81750 | 39869 ft | 419 kts | 262° |
| 2026-05-04 00:41 | 39.63349 | -107.89216 | 39852 ft | 418 kts | 262° |
| 2026-05-04 00:42 | 39.62454 | -107.96655 | 39875 ft | 417 kts | 262° |
| 2026-05-04 00:42 | 39.61559 | -108.04092 | 39862 ft | 417 kts | 262° |
| 2026-05-04 00:43 | 39.60655 | -108.11537 | 39854 ft | 418 kts | 262° |
| 2026-05-04 00:43 | 39.59755 | -108.18916 | 39859 ft | 416 kts | 262° |
| 2026-05-04 00:44 | 39.58844 | -108.26347 | 39856 ft | 417 kts | 262° |
| 2026-05-04 00:44 | 39.57925 | -108.33785 | 39853 ft | 418 kts | 262° |
| 2026-05-04 00:45 | 39.56998 | -108.41240 | 39855 ft | 419 kts | 262° |
| 2026-05-04 00:45 | 39.56082 | -108.48676 | 39857 ft | 416 kts | 261° |
| 2026-05-04 00:46 | 39.55153 | -108.56045 | 39847 ft | 416 kts | 261° |
| 2026-05-04 00:46 | 39.54214 | -108.63450 | 39824 ft | 416 kts | 261° |
| 2026-05-04 00:47 | 39.53280 | -108.70835 | 39840 ft | 416 kts | 261° |
| 2026-05-04 00:47 | 39.52344 | -108.78234 | 39817 ft | 417 kts | 261° |
| 2026-05-04 00:48 | 39.51394 | -108.85657 | 39816 ft | 418 kts | 261° |
| 2026-05-04 00:48 | 39.50439 | -108.93096 | 39819 ft | 418 kts | 261° |
| 2026-05-04 00:49 | 39.49476 | -109.00531 | 39815 ft | 418 kts | 261° |
| 2026-05-04 00:49 | 39.48512 | -109.07960 | 39811 ft | 418 kts | 261° |
| 2026-05-04 00:50 | 39.47546 | -109.15373 | 39812 ft | 417 kts | 261° |
| 2026-05-04 00:50 | 39.46581 | -109.22713 | 39815 ft | 415 kts | 260° |
| 2026-05-04 00:51 | 39.45607 | -109.30081 | 39830 ft | 415 kts | 261° |
| 2026-05-04 00:51 | 39.44632 | -109.37448 | 39831 ft | 416 kts | 261° |
| 2026-05-04 00:52 | 39.43648 | -109.44817 | 39844 ft | 416 kts | 261° |
| 2026-05-04 00:52 | 39.42663 | -109.52195 | 39841 ft | 416 kts | 260° |
| 2026-05-04 00:53 | 39.41670 | -109.59573 | 39847 ft | 417 kts | 260° |
| 2026-05-04 00:53 | 39.40675 | -109.66921 | 39844 ft | 417 kts | 260° |
| 2026-05-04 00:54 | 39.39672 | -109.74304 | 39858 ft | 416 kts | 260° |
| 2026-05-04 00:54 | 39.38666 | -109.81669 | 39841 ft | 416 kts | 260° |
| 2026-05-04 00:55 | 39.37655 | -109.89046 | 39853 ft | 415 kts | 260° |
| 2026-05-04 00:55 | 39.36641 | -109.96403 | 39838 ft | 416 kts | 260° |
| 2026-05-04 00:56 | 39.35648 | -110.03766 | 39833 ft | 415 kts | 260° |
| 2026-05-04 00:56 | 39.34666 | -110.11124 | 39830 ft | 416 kts | 260° |
| 2026-05-04 00:57 | 39.33682 | -110.18449 | 39836 ft | 416 kts | 260° |
| 2026-05-04 00:57 | 39.32685 | -110.25826 | 39820 ft | 417 kts | 260° |
| 2026-05-04 00:58 | 39.31678 | -110.33228 | 39828 ft | 419 kts | 260° |
| 2026-05-04 00:58 | 39.30665 | -110.40647 | 39831 ft | 420 kts | 260° |
| 2026-05-04 00:59 | 39.29646 | -110.48072 | 39843 ft | 420 kts | 259° |
| 2026-05-04 00:59 | 39.28619 | -110.55510 | 39839 ft | 421 kts | 259° |
| 2026-05-04 01:00 | 39.27588 | -110.62950 | 39860 ft | 421 kts | 259° |
| 2026-05-04 01:00 | 39.26551 | -110.70390 | 39857 ft | 421 kts | 259° |
| 2026-05-04 01:01 | 39.25511 | -110.77818 | 39876 ft | 420 kts | 259° |
| 2026-05-04 01:01 | 39.24469 | -110.85232 | 39873 ft | 420 kts | 259° |
| 2026-05-04 01:02 | 39.23431 | -110.92578 | 39891 ft | 419 kts | 259° |
| 2026-05-04 01:02 | 39.22382 | -110.99961 | 39893 ft | 418 kts | 259° |
| 2026-05-04 01:03 | 39.21331 | -111.07325 | 39913 ft | 417 kts | 259° |
| 2026-05-04 01:03 | 39.20279 | -111.14674 | 39909 ft | 416 kts | 258° |
| 2026-05-04 01:04 | 39.19224 | -111.22007 | 39929 ft | 417 kts | 258° |
| 2026-05-04 01:04 | 39.18158 | -111.29368 | 39937 ft | 418 kts | 258° |
| 2026-05-04 01:05 | 39.17085 | -111.36750 | 39929 ft | 420 kts | 258° |
| 2026-05-04 01:05 | 39.16008 | -111.44164 | 39903 ft | 419 kts | 258° |
| 2026-05-04 01:06 | 39.14929 | -111.51509 | 39923 ft | 420 kts | 258° |
| 2026-05-04 01:06 | 39.13833 | -111.58928 | 39891 ft | 422 kts | 258° |
| 2026-05-04 01:07 | 39.12732 | -111.66367 | 39899 ft | 423 kts | 258° |
| 2026-05-04 01:07 | 39.11626 | -111.73813 | 39889 ft | 423 kts | 258° |
| 2026-05-04 01:08 | 39.10514 | -111.81265 | 39867 ft | 423 kts | 258° |
| 2026-05-04 01:08 | 39.09398 | -111.88704 | 39871 ft | 423 kts | 258° |
| 2026-05-04 01:09 | 39.08286 | -111.96085 | 39874 ft | 422 kts | 258° |
| 2026-05-04 01:09 | 39.07164 | -112.03498 | 39895 ft | 422 kts | 258° |
| 2026-05-04 01:10 | 39.06038 | -112.10905 | 39900 ft | 422 kts | 258° |
| 2026-05-04 01:10 | 39.04906 | -112.18319 | 39907 ft | 422 kts | 258° |
| 2026-05-04 01:11 | 39.03769 | -112.25736 | 39926 ft | 422 kts | 258° |
| 2026-05-04 01:11 | 39.02626 | -112.33154 | 39933 ft | 422 kts | 258° |
| 2026-05-04 01:12 | 39.01481 | -112.40556 | 39936 ft | 422 kts | 258° |
| 2026-05-04 01:12 | 39.00334 | -112.47905 | 39924 ft | 422 kts | 258° |
| 2026-05-04 01:12 | 38.99756 | -112.51600 | 39814 ft | 422 kts | 258° |
| 2026-05-04 01:13 | 38.99176 | -112.55298 | 39816 ft | 422 kts | 258° |
| 2026-05-04 01:13 | 38.98015 | -112.62689 | 39799 ft | 422 kts | 258° |
| 2026-05-04 01:14 | 38.96847 | -112.70086 | 39802 ft | 422 kts | 258° |
| 2026-05-04 01:14 | 38.95675 | -112.77484 | 39785 ft | 423 kts | 258° |
| 2026-05-04 01:15 | 38.94497 | -112.84885 | 39782 ft | 423 kts | 258° |
| 2026-05-04 01:15 | 38.93315 | -112.92281 | 39780 ft | 423 kts | 257° |
| 2026-05-04 01:16 | 38.92133 | -112.99637 | 39791 ft | 423 kts | 257° |
| 2026-05-04 01:16 | 38.90940 | -113.07046 | 39785 ft | 424 kts | 257° |
| 2026-05-04 01:17 | 38.89739 | -113.14461 | 39792 ft | 424 kts | 257° |
| 2026-05-04 01:17 | 38.88535 | -113.21865 | 39795 ft | 424 kts | 257° |
| 2026-05-04 01:18 | 38.87326 | -113.29271 | 39794 ft | 424 kts | 257° |
| 2026-05-04 01:18 | 38.86113 | -113.36667 | 39801 ft | 423 kts | 257° |
| 2026-05-04 01:19 | 38.84898 | -113.44054 | 39796 ft | 423 kts | 257° |
| 2026-05-04 01:19 | 38.83676 | -113.51444 | 39798 ft | 423 kts | 257° |
| 2026-05-04 01:20 | 38.82462 | -113.58767 | 39811 ft | 422 kts | 257° |
| 2026-05-04 01:20 | 38.81232 | -113.66130 | 39795 ft | 422 kts | 257° |
| 2026-05-04 01:21 | 38.80000 | -113.73494 | 39802 ft | 423 kts | 257° |
| 2026-05-04 01:21 | 38.78764 | -113.80860 | 39794 ft | 423 kts | 257° |
| 2026-05-04 01:22 | 38.77518 | -113.88243 | 39798 ft | 424 kts | 257° |
| 2026-05-04 01:22 | 38.76268 | -113.95638 | 39794 ft | 424 kts | 257° |
| 2026-05-04 01:23 | 38.75023 | -114.02978 | 39790 ft | 424 kts | 257° |
| 2026-05-04 01:23 | 38.73767 | -114.10361 | 39786 ft | 424 kts | 257° |
| 2026-05-04 01:24 | 38.72506 | -114.17741 | 39789 ft | 424 kts | 257° |
| 2026-05-04 01:24 | 38.71240 | -114.25117 | 39790 ft | 424 kts | 257° |
| 2026-05-04 01:25 | 38.69967 | -114.32503 | 39802 ft | 424 kts | 257° |
| 2026-05-04 01:25 | 38.68697 | -114.39845 | 39805 ft | 425 kts | 256° |
| 2026-05-04 01:26 | 38.67415 | -114.47226 | 39799 ft | 424 kts | 256° |
| 2026-05-04 01:26 | 38.66131 | -114.54594 | 39814 ft | 424 kts | 256° |
| 2026-05-04 01:27 | 38.64841 | -114.61959 | 39805 ft | 424 kts | 256° |
| 2026-05-04 01:27 | 38.63766 | -114.68083 | 39800 ft | 424 kts | 256° |
| 2026-05-04 01:28 | 38.62476 | -114.75403 | 39810 ft | 421 kts | 256° |
| 2026-05-04 01:28 | 38.61179 | -114.82724 | 39798 ft | 422 kts | 256° |
| 2026-05-04 01:29 | 38.59877 | -114.90057 | 39807 ft | 424 kts | 256° |
| 2026-05-04 01:29 | 38.58563 | -114.97423 | 39805 ft | 426 kts | 256° |
| 2026-05-04 01:30 | 38.57238 | -115.04835 | 39800 ft | 429 kts | 256° |
| 2026-05-04 01:30 | 38.55899 | -115.12274 | 39798 ft | 430 kts | 256° |
| 2026-05-04 01:31 | 38.54546 | -115.19723 | 39801 ft | 431 kts | 256° |
| 2026-05-04 01:31 | 38.53185 | -115.27190 | 39789 ft | 431 kts | 256° |
| 2026-05-04 01:32 | 38.51833 | -115.34586 | 39806 ft | 430 kts | 256° |
| 2026-05-04 01:32 | 38.50501 | -115.42020 | 39809 ft | 428 kts | 256° |
| 2026-05-04 01:33 | 38.49142 | -115.49415 | 39803 ft | 428 kts | 255° |
| 2026-05-04 01:33 | 38.47747 | -115.56815 | 39807 ft | 428 kts | 256° |
| 2026-05-04 01:34 | 38.46366 | -115.64209 | 39813 ft | 428 kts | 256° |
| 2026-05-04 01:34 | 38.44990 | -115.71597 | 39812 ft | 427 kts | 255° |
| 2026-05-04 01:35 | 38.43613 | -115.78968 | 39819 ft | 427 kts | 255° |
| 2026-05-04 01:35 | 38.42242 | -115.86277 | 39818 ft | 426 kts | 255° |
| 2026-05-04 01:36 | 38.40859 | -115.93620 | 39823 ft | 426 kts | 255° |
| 2026-05-04 01:36 | 38.39471 | -116.00963 | 39820 ft | 426 kts | 255° |
| 2026-05-04 01:37 | 38.38078 | -116.08305 | 39829 ft | 426 kts | 255° |
| 2026-05-04 01:37 | 38.36678 | -116.15654 | 39840 ft | 427 kts | 255° |
| 2026-05-04 01:38 | 38.35272 | -116.23016 | 39835 ft | 428 kts | 255° |
| 2026-05-04 01:38 | 38.33862 | -116.30378 | 39849 ft | 428 kts | 255° |
| 2026-05-04 01:39 | 38.32381 | -116.37721 | 39849 ft | 427 kts | 253° |
| 2026-05-04 01:39 | 38.30725 | -116.44992 | 39860 ft | 427 kts | 252° |
| 2026-05-04 01:40 | 38.29058 | -116.52225 | 39864 ft | 428 kts | 253° |
| 2026-05-04 01:40 | 38.27401 | -116.59520 | 39867 ft | 429 kts | 253° |
| 2026-05-04 01:41 | 38.25748 | -116.66818 | 39864 ft | 430 kts | 253° |
| 2026-05-04 01:41 | 38.24090 | -116.74122 | 39873 ft | 429 kts | 252° |
| 2026-05-04 01:42 | 38.22425 | -116.81429 | 39888 ft | 429 kts | 252° |
| 2026-05-04 01:42 | 38.20769 | -116.88672 | 39892 ft | 429 kts | 252° |
| 2026-05-04 01:43 | 38.19100 | -116.95952 | 39908 ft | 429 kts | 252° |
| 2026-05-04 01:43 | 38.17427 | -117.03226 | 39929 ft | 429 kts | 252° |
| 2026-05-04 01:44 | 38.15746 | -117.10507 | 39926 ft | 429 kts | 252° |
| 2026-05-04 01:44 | 38.14063 | -117.17786 | 39925 ft | 428 kts | 252° |
| 2026-05-04 01:45 | 38.12377 | -117.25048 | 39812 ft | 429 kts | 252° |
| 2026-05-04 01:45 | 38.09852 | -117.35957 | 39799 ft | 429 kts | 252° |
| 2026-05-04 01:46 | 38.08172 | -117.43234 | 39795 ft | 429 kts | 252° |
| 2026-05-04 01:46 | 38.06485 | -117.50514 | 39794 ft | 429 kts | 252° |
| 2026-05-04 01:47 | 38.04794 | -117.57783 | 39792 ft | 429 kts | 252° |
| 2026-05-04 01:47 | 38.03100 | -117.65046 | 39778 ft | 429 kts | 252° |
| 2026-05-04 01:48 | 38.01401 | -117.72309 | 39769 ft | 429 kts | 252° |
| 2026-05-04 01:48 | 37.99982 | -117.79608 | 39769 ft | 431 kts | 259° |
| 2026-05-04 01:49 | 37.99221 | -117.87141 | 39776 ft | 431 kts | 261° |
| 2026-05-04 01:49 | 37.98455 | -117.94664 | 39776 ft | 430 kts | 260° |
| 2026-05-04 01:50 | 37.97670 | -118.02192 | 39776 ft | 430 kts | 260° |
| 2026-05-04 01:50 | 37.96876 | -118.09705 | 39811 ft | 430 kts | 260° |
| 2026-05-04 01:51 | 37.96075 | -118.17231 | 39802 ft | 431 kts | 260° |
| 2026-05-04 01:51 | 37.95268 | -118.24762 | 39813 ft | 431 kts | 260° |
| 2026-05-04 01:52 | 37.94454 | -118.32299 | 39831 ft | 431 kts | 260° |
| 2026-05-04 01:52 | 37.93642 | -118.39829 | 39831 ft | 432 kts | 259° |
| 2026-05-04 01:53 | 37.92821 | -118.47372 | 39855 ft | 433 kts | 259° |
| 2026-05-04 01:53 | 37.91996 | -118.54893 | 39863 ft | 434 kts | 260° |
| 2026-05-04 01:54 | 37.91158 | -118.62476 | 39865 ft | 435 kts | 260° |
| 2026-05-04 01:54 | 37.90316 | -118.70078 | 39900 ft | 436 kts | 259° |
| 2026-05-04 01:55 | 37.89471 | -118.77648 | 39910 ft | 438 kts | 259° |
| 2026-05-04 01:55 | 37.88605 | -118.85287 | 39923 ft | 438 kts | 259° |
| 2026-05-04 01:56 | 37.87732 | -118.92932 | 39939 ft | 439 kts | 259° |
| 2026-05-04 01:56 | 37.86853 | -119.00590 | 39931 ft | 440 kts | 259° |
| 2026-05-04 01:57 | 37.85970 | -119.08250 | 39905 ft | 440 kts | 259° |
| 2026-05-04 01:57 | 37.85527 | -119.12080 | 39904 ft | 440 kts | 259° |
| 2026-05-04 01:58 | 37.84659 | -119.19545 | 39928 ft | 439 kts | 259° |
| 2026-05-04 01:58 | 37.83770 | -119.27141 | 39961 ft | 439 kts | 259° |
| 2026-05-04 01:59 | 37.82868 | -119.34808 | 39938 ft | 440 kts | 259° |
| 2026-05-04 01:59 | 37.81964 | -119.42461 | 39967 ft | 440 kts | 259° |
| 2026-05-04 02:00 | 37.81054 | -119.50110 | 39980 ft | 439 kts | 259° |
| 2026-05-04 02:00 | 37.80140 | -119.57743 | 39977 ft | 439 kts | 259° |
| 2026-05-04 02:01 | 37.79222 | -119.65378 | 39936 ft | 440 kts | 259° |
| 2026-05-04 02:01 | 37.78753 | -119.69245 | 39211 ft | 447 kts | 259° |
| 2026-05-04 02:01 | 37.78290 | -119.73065 | 38554 ft | 441 kts | 258° |
| 2026-05-04 02:02 | 37.77835 | -119.76833 | 37727 ft | 426 kts | 258° |
| 2026-05-04 02:02 | 37.77393 | -119.80480 | 36990 ft | 412 kts | 258° |
| 2026-05-04 02:02 | 37.76964 | -119.84007 | 36289 ft | 402 kts | 258° |
| 2026-05-04 02:02 | 37.76531 | -119.87534 | 35602 ft | 416 kts | 259° |
| 2026-05-04 02:03 | 37.76064 | -119.91277 | 34737 ft | 446 kts | 259° |
| 2026-05-04 02:03 | 37.75571 | -119.95234 | 33803 ft | 461 kts | 259° |
| 2026-05-04 02:03 | 37.75079 | -119.99216 | 33053 ft | 456 kts | 259° |
| 2026-05-04 02:03 | 37.74595 | -120.03161 | 32399 ft | 452 kts | 259° |
| 2026-05-04 02:04 | 37.74114 | -120.07064 | 31774 ft | 448 kts | 259° |
| 2026-05-04 02:04 | 37.73632 | -120.10941 | 31215 ft | 446 kts | 259° |
| 2026-05-04 02:04 | 37.73146 | -120.14836 | 30691 ft | 452 kts | 259° |
| 2026-05-04 02:04 | 37.72641 | -120.18847 | 30143 ft | 473 kts | 259° |
| 2026-05-04 02:05 | 37.72119 | -120.22992 | 29427 ft | 479 kts | 259° |
| 2026-05-04 02:05 | 37.71601 | -120.27120 | 28749 ft | 473 kts | 259° |
| 2026-05-04 02:05 | 37.71088 | -120.31203 | 28097 ft | 467 kts | 259° |
| 2026-05-04 02:05 | 37.70581 | -120.35222 | 27481 ft | 460 kts | 259° |
| 2026-05-04 02:06 | 37.70076 | -120.39194 | 26926 ft | 454 kts | 259° |
| 2026-05-04 02:06 | 37.69593 | -120.43073 | 26463 ft | 445 kts | 260° |
| 2026-05-04 02:06 | 37.69147 | -120.46875 | 25928 ft | 439 kts | 260° |
| 2026-05-04 02:06 | 37.68708 | -120.50712 | 25388 ft | 434 kts | 260° |
| 2026-05-04 02:07 | 37.68283 | -120.54419 | 24872 ft | 431 kts | 260° |
| 2026-05-04 02:07 | 37.67850 | -120.58163 | 24351 ft | 430 kts | 260° |
| 2026-05-04 02:07 | 37.67416 | -120.61885 | 23826 ft | 426 kts | 260° |
| 2026-05-04 02:07 | 37.66983 | -120.65568 | 23255 ft | 423 kts | 259° |
| 2026-05-04 02:08 | 37.66552 | -120.69226 | 22667 ft | 419 kts | 259° |
| 2026-05-04 02:08 | 37.66124 | -120.72840 | 22127 ft | 414 kts | 259° |
| 2026-05-04 02:08 | 37.65699 | -120.76420 | 21626 ft | 409 kts | 259° |
| 2026-05-04 02:08 | 37.65277 | -120.79939 | 21149 ft | 403 kts | 259° |
| 2026-05-04 02:09 | 37.64857 | -120.83425 | 20693 ft | 398 kts | 259° |
| 2026-05-04 02:09 | 37.64442 | -120.86859 | 20233 ft | 394 kts | 259° |
| 2026-05-04 02:09 | 37.64032 | -120.90258 | 19777 ft | 389 kts | 259° |
| 2026-05-04 02:09 | 37.63625 | -120.93620 | 19333 ft | 385 kts | 259° |
| 2026-05-04 02:10 | 37.63218 | -120.96945 | 18905 ft | 382 kts | 258° |
| 2026-05-04 02:10 | 37.62795 | -121.00192 | 18465 ft | 378 kts | 258° |
| 2026-05-04 02:10 | 37.62356 | -121.03453 | 17991 ft | 375 kts | 258° |
| 2026-05-04 02:10 | 37.61917 | -121.06693 | 17513 ft | 372 kts | 257° |
| 2026-05-04 02:11 | 37.61486 | -121.09891 | 17063 ft | 368 kts | 257° |
| 2026-05-04 02:11 | 37.61060 | -121.13058 | 16623 ft | 364 kts | 258° |
| 2026-05-04 02:11 | 37.60639 | -121.16187 | 16207 ft | 360 kts | 258° |
| 2026-05-04 02:11 | 37.60223 | -121.19285 | 15795 ft | 357 kts | 257° |
| 2026-05-04 02:12 | 37.59807 | -121.22371 | 15402 ft | 357 kts | 258° |
| 2026-05-04 02:12 | 37.59390 | -121.25451 | 14997 ft | 355 kts | 258° |
| 2026-05-04 02:12 | 37.58994 | -121.28511 | 14588 ft | 352 kts | 260° |
| 2026-05-04 02:12 | 37.58642 | -121.31551 | 14181 ft | 350 kts | 259° |
| 2026-05-04 02:13 | 37.58416 | -121.33565 | 13901 ft | 350 kts | 259° |
| 2026-05-04 02:13 | 37.58076 | -121.36596 | 13475 ft | 349 kts | 260° |
| 2026-05-04 02:13 | 37.57621 | -121.40596 | 12906 ft | 346 kts | 260° |
| 2026-05-04 02:13 | 37.57278 | -121.43597 | 12499 ft | 344 kts | 259° |
| 2026-05-04 02:14 | 37.57047 | -121.45608 | 12230 ft | 342 kts | 259° |
| 2026-05-04 02:14 | 37.56708 | -121.48534 | 11819 ft | 340 kts | 259° |
| 2026-05-04 02:14 | 37.56368 | -121.51464 | 11425 ft | 336 kts | 259° |
| 2026-05-04 02:14 | 37.56030 | -121.54369 | 11052 ft | 333 kts | 259° |
| 2026-05-04 02:15 | 37.55696 | -121.57233 | 10660 ft | 329 kts | 259° |
| 2026-05-04 02:15 | 37.55363 | -121.60073 | 10278 ft | 325 kts | 259° |
| 2026-05-04 02:15 | 37.55022 | -121.62868 | 9928 ft | 320 kts | 256° |
| 2026-05-04 02:15 | 37.54482 | -121.65528 | 9770 ft | 308 kts | 250° |
| 2026-05-04 02:16 | 37.53833 | -121.68067 | 9574 ft | 298 kts | 249° |
| 2026-05-04 02:16 | 37.53203 | -121.70508 | 9425 ft | 288 kts | 249° |
| 2026-05-04 02:16 | 37.52598 | -121.72928 | 8866 ft | 293 kts | 249° |
| 2026-05-04 02:16 | 37.52001 | -121.75386 | 8556 ft | 291 kts | 250° |
| 2026-05-04 02:17 | 37.51429 | -121.77768 | 8410 ft | 283 kts | 250° |
| 2026-05-04 02:17 | 37.50873 | -121.80093 | 8263 ft | 268 kts | 250° |
| 2026-05-04 02:17 | 37.50344 | -121.82297 | 7709 ft | 257 kts | 249° |
| 2026-05-04 02:17 | 37.49827 | -121.84456 | 7417 ft | 259 kts | 249° |
| 2026-05-04 02:18 | 37.49303 | -121.86638 | 7110 ft | 260 kts | 250° |
| 2026-05-04 02:18 | 37.49047 | -121.88867 | 6808 ft | 260 kts | 268° |
| 2026-05-04 02:18 | 37.49180 | -121.91168 | 6561 ft | 266 kts | 271° |
| 2026-05-04 02:18 | 37.49361 | -121.93510 | 6283 ft | 270 kts | 271° |
| 2026-05-04 02:19 | 37.49527 | -121.95858 | 5980 ft | 269 kts | 271° |
| 2026-05-04 02:19 | 37.49685 | -121.98204 | 5656 ft | 268 kts | 271° |
| 2026-05-04 02:19 | 37.49828 | -122.00540 | 5347 ft | 267 kts | 271° |
| 2026-05-04 02:19 | 37.49965 | -122.02868 | 5102 ft | 262 kts | 271° |
| 2026-05-04 02:20 | 37.50096 | -122.05088 | 4784 ft | 247 kts | 272° |
| 2026-05-04 02:20 | 37.50215 | -122.07168 | 4491 ft | 239 kts | 272° |
| 2026-05-04 02:20 | 37.50348 | -122.09253 | 4211 ft | 235 kts | 276° |
| 2026-05-04 02:20 | 37.50911 | -122.11143 | 3922 ft | 229 kts | 298° |
| 2026-05-04 02:21 | 37.51705 | -122.12839 | 3687 ft | 223 kts | 296° |
| 2026-05-04 02:21 | 37.52453 | -122.14536 | 3459 ft | 220 kts | 295° |
| 2026-05-04 02:21 | 37.53176 | -122.16220 | 3243 ft | 216 kts | 295° |
| 2026-05-04 02:21 | 37.53872 | -122.17870 | 2967 ft | 212 kts | 295° |
| 2026-05-04 02:22 | 37.54554 | -122.19500 | 2716 ft | 208 kts | 295° |
| 2026-05-04 02:22 | 37.55226 | -122.21099 | 2470 ft | 204 kts | 296° |
| 2026-05-04 02:22 | 37.55877 | -122.22647 | 2209 ft | 192 kts | 295° |
| 2026-05-04 02:22 | 37.56476 | -122.24071 | 1992 ft | 176 kts | 294° |
| 2026-05-04 02:23 | 37.57014 | -122.25352 | 1880 ft | 156 kts | 293° |
| 2026-05-04 02:23 | 37.57497 | -122.26506 | 1662 ft | 145 kts | 294° |
| 2026-05-04 02:23 | 37.57969 | -122.27632 | 1484 ft | 142 kts | 292° |
| 2026-05-04 02:23 | 37.58425 | -122.28721 | 1290 ft | 142 kts | 293° |
| 2026-05-04 02:24 | 37.58883 | -122.29815 | 1082 ft | 139 kts | 294° |
| 2026-05-04 02:24 | 37.59318 | -122.30852 | 927 ft | 129 kts | 294° |
| 2026-05-04 02:24 | 37.59737 | -122.31852 | 741 ft | 129 kts | 292° |
| 2026-05-04 02:24 | 37.60154 | -122.32848 | 577 ft | 131 kts | 293° |
| 2026-05-04 02:25 | 37.60579 | -122.33853 | 393 ft | 128 kts | 295° |
| 2026-05-04 02:25 | 37.60993 | -122.34835 | 225 ft | 128 kts | 296° |
| 2026-05-04 02:25 | 37.61416 | -122.35842 | 85 ft | 132 kts | 291° |
| 2026-05-04 02:25 | 37.61834 | -122.36838 | 30 ft | 119 kts | 294° |
| 2026-05-04 02:26 | 37.62153 | -122.37629 | 27 ft | 80 kts | 297° |
| 2026-05-04 02:26 | 37.62348 | -122.38091 | 26 ft | 48 kts | 298° |
| 2026-05-04 02:26 | 37.62451 | -122.38338 | 26 ft | 21 kts | 297° |
| 2026-05-04 02:26 | 37.62480 | -122.38422 | 26 ft | 7 kts | 283° |
| 2026-05-04 02:27 | 37.62450 | -122.38468 | 26 ft | 8 kts | 207° |
| 2026-05-04 02:27 | 37.62402 | -122.38496 | 26 ft | 8 kts | 205° |
| 2026-05-04 02:27 | 37.62355 | -122.38525 | 26 ft | 8 kts | 206° |
| 2026-05-04 02:27 | 37.62307 | -122.38554 | 25 ft | 8 kts | 206° |
| 2026-05-04 02:28 | 37.62260 | -122.38584 | 26 ft | 8 kts | 207° |
| 2026-05-04 02:28 | 37.62213 | -122.38615 | 26 ft | 8 kts | 207° |
| 2026-05-04 02:28 | 37.62175 | -122.38658 | 26 ft | 8 kts | 250° |
| 2026-05-04 02:28 | 37.62184 | -122.38723 | 26 ft | 8 kts | 298° |
| 2026-05-04 02:29 | 37.62197 | -122.38766 | 26 ft | 5 kts | 275° |
| 2026-05-04 02:29 | 37.62179 | -122.38800 | 26 ft | 5 kts | 210° |
| 2026-05-04 02:29 | 37.62150 | -122.38819 | 26 ft | 4 kts | 207° |
| 2026-05-04 02:29 | 37.62128 | -122.38833 | 26 ft | 2 kts | 207° |
| 2026-05-04 02:30 | 37.62119 | -122.38839 | 25 ft | 1 kts | 207° |
| 2026-05-04 02:30 | 37.62114 | -122.38842 | 26 ft | 1 kts | 207° |
| 2026-05-04 02:30 | 37.62109 | -122.38845 | 26 ft | 0 kts | 207° |
| 2026-05-04 02:30 | 37.62108 | -122.38846 | 26 ft | 0 kts | 207° |